Time;durP1;ratioP1;P1;durP2;ratioP2;P2;SDS_P1;SDS_P2;PMS_P1;PMS_P2;Temp;Humidity;BMP_temperature;BMP_pressure;BME280_temperature;BME280_humidity;BME280_pressure;Samples;Min_cycle;Max_cycle;Signal;HPM_P1;HPM_P2
2021/11/04 00:02:19;;;;;;;;;;;4.60;99.90;;;;;;5073800;28;20336;-72
2021/11/04 00:04:45;;;;;;;;;;;4.60;99.90;;;;;;5075149;28;19928;-71
2021/11/04 00:07:13;;;;;;;;;;;4.50;99.90;;;;;;5074130;28;19971;-72
2021/11/04 00:09:40;;;;;;;;;;;4.50;99.90;;;;;;5075162;28;19924;-71
2021/11/04 00:12:08;;;;;;;;;;;4.50;99.90;;;;;;5074488;28;20573;-72
2021/11/04 00:14:35;;;;;;;;;;;4.50;99.90;;;;;;5073010;28;19970;-72
2021/11/04 00:17:02;;;;;;;;;;;4.40;99.90;;;;;;5074686;28;19925;-72
2021/11/04 00:19:29;;;;;;;;;;;4.40;99.90;;;;;;5073541;28;19924;-72
2021/11/04 00:21:56;;;;;;;;;;;4.40;99.90;;;;;;5075027;28;20019;-73
2021/11/04 00:24:22;;;;;;;;;;;4.30;99.90;;;;;;5072907;28;19977;-71
2021/11/04 00:26:49;;;;;;;;;;;4.30;99.90;;;;;;5075055;28;19924;-71
2021/11/04 00:29:17;;;;;;;;;;;4.30;99.90;;;;;;5073639;28;20298;-72
2021/11/04 00:31:44;;;;;;;;;;;4.30;99.90;;;;;;5074548;28;19924;-72
2021/11/04 00:34:11;;;;;;;;;;;4.30;99.90;;;;;;5071721;28;19924;-72
2021/11/04 00:36:37;;;;;;;;;;;4.20;99.90;;;;;;5075306;28;19924;-71
2021/11/04 00:39:05;;;;;;;;;;;4.20;99.90;;;;;;5072589;28;19924;-72
2021/11/04 00:41:31;;;;;;;;;;;4.20;99.90;;;;;;5074896;28;20314;-72
2021/11/04 00:44:02;;;;;;;;;;;4.10;99.90;;;;;;5071952;28;20374;-71
2021/11/04 00:46:30;;;;;;;;;;;4.10;99.90;;;;;;5074837;28;19924;-71
2021/11/04 00:48:56;;;;;;;;;;;4.10;99.90;;;;;;5073462;28;19931;-72
2021/11/04 00:51:23;;;;;;;;;;;4.10;99.90;;;;;;5074978;28;19924;-71
2021/11/04 00:53:50;;;;;;;;;;;4.10;99.90;;;;;;5071680;28;20342;-71
2021/11/04 00:56:16;;;;;;;;;;;4.00;99.90;;;;;;5074467;28;20398;-72
2021/11/04 00:58:43;;;;;;;;;;;3.90;99.90;;;;;;5072683;28;19931;-72
2021/11/04 01:01:10;;;;;;;;;;;3.90;99.90;;;;;;5074381;28;19925;-72
2021/11/04 01:03:38;;;;;;;;;;;3.90;99.90;;;;;;5070318;28;19931;-72
2021/11/04 01:06:04;;;;;;;;;;;3.70;99.90;;;;;;5071060;28;19931;-72
2021/11/04 01:08:31;;;;;;;;;;;3.70;99.90;;;;;;5072381;28;20007;-72
2021/11/04 01:10:58;;;;;;;;;;;3.60;99.90;;;;;;5074378;28;19936;-72
2021/11/04 01:13:24;;;;;;;;;;;3.60;99.90;;;;;;5072083;28;20407;-71
2021/11/04 01:15:51;;;;;;;;;;;3.70;99.90;;;;;;5074649;28;19924;-72
2021/11/04 01:18:18;;;;;;;;;;;3.70;99.90;;;;;;5072192;28;20395;-71
2021/11/04 01:20:46;;;;;;;;;;;3.60;99.90;;;;;;5073645;28;19925;-72
2021/11/04 01:23:13;;;;;;;;;;;3.60;99.90;;;;;;5071851;28;19925;-71
2021/11/04 01:25:39;;;;;;;;;;;3.50;99.90;;;;;;5072690;28;20387;-72
2021/11/04 01:28:08;;;;;;;;;;;3.50;99.90;;;;;;5072150;28;19924;-72
2021/11/04 01:30:36;;;;;;;;;;;3.50;99.90;;;;;;5073392;28;20380;-71
2021/11/04 01:33:03;;;;;;;;;;;3.40;99.90;;;;;;5071603;28;19924;-71
2021/11/04 01:35:31;;;;;;;;;;;3.30;99.90;;;;;;5073471;28;19931;-72
2021/11/04 01:37:59;;;;;;;;;;;3.30;99.90;;;;;;5071829;28;19936;-71
2021/11/04 01:40:26;;;;;;;;;;;3.30;99.90;;;;;;5073736;28;19929;-72
2021/11/04 01:42:53;;;;;;;;;;;3.30;99.90;;;;;;5071992;28;20307;-72
2021/11/04 01:45:19;;;;;;;;;;;3.30;99.90;;;;;;5072660;28;19930;-71
2021/11/04 01:47:46;;;;;;;;;;;3.30;99.90;;;;;;5071909;28;19925;-72
2021/11/04 01:50:13;;;;;;;;;;;3.40;99.90;;;;;;5073372;28;20035;-72
2021/11/04 01:52:40;;;;;;;;;;;3.40;99.90;;;;;;5068100;28;19931;-72
2021/11/04 01:55:08;;;;;;;;;;;3.40;99.90;;;;;;5068969;28;19931;-72
2021/11/04 01:57:35;;;;;;;;;;;3.40;99.90;;;;;;5072061;28;20342;-71
2021/11/04 02:00:01;;;;;;;;;;;3.40;99.90;;;;;;5073471;28;20020;-72
2021/11/04 02:02:29;;;;;;;;;;;3.40;99.90;;;;;;5071097;28;20023;-71
2021/11/04 02:04:58;;;;;;;;;;;3.40;99.90;;;;;;5072025;28;20470;-71
2021/11/04 02:07:26;;;;;;;;;;;3.40;99.90;;;;;;5071476;28;19932;-72
2021/11/04 02:09:58;;;;;;;;;;;3.40;99.90;;;;;;5073034;28;19924;-71
2021/11/04 02:12:31;;;;;;;;;;;3.40;99.90;;;;;;5071072;28;19932;-72
2021/11/04 02:14:58;;;;;;;;;;;3.40;99.90;;;;;;5072320;28;19931;-72
2021/11/04 02:17:26;;;;;;;;;;;3.40;99.90;;;;;;5069801;28;20307;-72
2021/11/04 02:19:55;;;;;;;;;;;3.40;99.90;;;;;;5072449;28;19964;-72
2021/11/04 02:22:25;;;;;;;;;;;3.40;99.90;;;;;;5071466;28;19928;-72
2021/11/04 02:25:02;;;;;;;;;;;3.30;99.90;;;;;;5072162;28;19924;-72
2021/11/04 02:27:29;;;;;;;;;;;3.40;99.90;;;;;;5071210;28;19935;-71
2021/11/04 02:29:56;;;;;;;;;;;3.40;99.90;;;;;;5072591;28;19924;-71
2021/11/04 02:32:23;;;;;;;;;;;3.40;99.90;;;;;;5070518;28;19931;-71
2021/11/04 02:34:51;;;;;;;;;;;3.40;99.90;;;;;;5071195;28;19931;-72
2021/11/04 02:37:18;;;;;;;;;;;3.40;99.90;;;;;;5071711;28;20328;-72
2021/11/04 02:39:45;;;;;;;;;;;3.40;99.90;;;;;;5072644;28;19925;-71
2021/11/04 02:42:14;;;;;;;;;;;3.40;99.90;;;;;;5071437;28;19957;-72
2021/11/04 02:44:41;;;;;;;;;;;3.40;99.90;;;;;;5072147;28;19924;-72
2021/11/04 02:47:09;;;;;;;;;;;3.40;99.90;;;;;;5070428;28;20299;-71
2021/11/04 02:49:36;;;;;;;;;;;3.40;99.90;;;;;;5071863;28;20014;-71
2021/11/04 02:52:04;;;;;;;;;;;3.40;99.90;;;;;;5072195;28;19924;-71
2021/11/04 02:54:31;;;;;;;;;;;3.40;99.90;;;;;;5070483;28;19931;-71
2021/11/04 02:56:57;;;;;;;;;;;3.40;99.90;;;;;;5071649;28;20387;-72
2021/11/04 02:59:26;;;;;;;;;;;3.30;99.90;;;;;;5070565;28;19924;-72
2021/11/04 03:01:54;;;;;;;;;;;3.40;99.90;;;;;;5070967;28;19928;-72
2021/11/04 03:04:21;;;;;;;;;;;3.40;99.90;;;;;;5070782;28;19946;-71
2021/11/04 03:06:48;;;;;;;;;;;3.40;99.90;;;;;;5071687;28;19924;-71
2021/11/04 03:09:15;;;;;;;;;;;3.40;99.90;;;;;;5070723;28;19924;-71
2021/11/04 03:11:42;;;;;;;;;;;3.40;99.90;;;;;;5072162;28;19932;-72
2021/11/04 03:14:09;;;;;;;;;;;3.40;99.90;;;;;;5069941;28;19925;-71
2021/11/04 03:16:39;;;;;;;;;;;3.40;99.90;;;;;;5070807;28;19924;-71
2021/11/04 03:19:06;;;;;;;;;;;3.40;99.90;;;;;;5070591;28;19925;-71
2021/11/04 03:21:33;;;;;;;;;;;3.40;99.90;;;;;;5072053;28;19924;-71
2021/11/04 03:24:00;;;;;;;;;;;3.40;99.90;;;;;;5070330;28;19931;-72
2021/11/04 03:26:27;;;;;;;;;;;3.40;99.90;;;;;;5071624;28;20443;-71
2021/11/04 03:28:54;;;;;;;;;;;3.30;99.90;;;;;;5068886;28;19925;-71
2021/11/04 03:31:20;;;;;;;;;;;3.30;99.90;;;;;;5072156;28;19925;-71
2021/11/04 03:33:49;;;;;;;;;;;3.30;99.90;;;;;;5070035;28;19931;-71
2021/11/04 03:36:17;;;;;;;;;;;3.30;99.90;;;;;;5071571;28;19931;-71
2021/11/04 03:38:44;;;;;;;;;;;3.30;99.90;;;;;;5070389;28;19934;-71
2021/11/04 03:41:12;;;;;;;;;;;3.40;99.90;;;;;;5092225;28;19931;-71
2021/11/04 03:43:39;;;;;;;;;;;3.40;99.90;;;;;;5077235;28;20037;-72
2021/11/04 03:46:06;;;;;;;;;;;3.40;99.90;;;;;;5072093;28;19925;-72
2021/11/04 03:48:35;;;;;;;;;;;3.40;99.90;;;;;;5067619;28;19924;-71
2021/11/04 03:51:03;;;;;;;;;;;3.50;99.90;;;;;;5071838;28;19924;-71
2021/11/04 03:53:30;;;;;;;;;;;3.50;99.90;;;;;;5069956;28;20294;-71
2021/11/04 03:55:57;;;;;;;;;;;3.50;99.90;;;;;;5071343;28;20398;-71
2021/11/04 03:58:25;;;;;;;;;;;3.50;99.90;;;;;;5069129;28;19924;-71
2021/11/04 04:00:53;;;;;;;;;;;3.50;99.90;;;;;;5071470;28;20397;-71
2021/11/04 04:03:20;;;;;;;;;;;3.40;99.90;;;;;;5069986;28;19924;-71
2021/11/04 04:05:58;;;;;;;;;;;3.40;99.90;;;;;;5071974;28;20398;-71
2021/11/04 04:08:26;;;;;;;;;;;3.40;99.90;;;;;;5068761;28;19936;-72
2021/11/04 04:10:52;;;;;;;;;;;3.30;99.90;;;;;;5071913;28;19925;-71
2021/11/04 04:13:19;;;;;;;;;;;3.30;99.90;;;;;;5069930;28;19930;-71
2021/11/04 04:15:46;;;;;;;;;;;3.30;99.90;;;;;;5071721;28;20401;-71
2021/11/04 04:18:12;;;;;;;;;;;3.20;99.90;;;;;;5069654;28;19924;-71
2021/11/04 04:20:39;;;;;;;;;;;3.20;99.90;;;;;;5074917;28;19935;-71
2021/11/04 04:23:06;;;;;;;;;;;3.30;99.90;;;;;;5073196;28;20294;-71
2021/11/04 04:25:34;;;;;;;;;;;3.30;99.90;;;;;;5075098;28;19954;-71
2021/11/04 04:28:00;;;;;;;;;;;3.40;99.90;;;;;;5071850;28;20302;-71
2021/11/04 04:30:27;;;;;;;;;;;3.40;99.90;;;;;;5074559;28;19926;-71
2021/11/04 04:32:54;;;;;;;;;;;3.50;99.90;;;;;;5072833;28;19924;-71
2021/11/04 04:35:21;;;;;;;;;;;3.50;99.90;;;;;;5074414;28;19925;-71
2021/11/04 04:37:47;;;;;;;;;;;3.40;99.90;;;;;;5072997;28;20302;-71
2021/11/04 04:40:14;;;;;;;;;;;3.40;99.90;;;;;;5074670;28;19924;-71
2021/11/04 04:42:43;;;;;;;;;;;3.40;99.90;;;;;;5073464;28;19931;-71
2021/11/04 04:45:11;;;;;;;;;;;3.30;99.90;;;;;;5074033;28;19948;-71
2021/11/04 04:47:37;;;;;;;;;;;3.30;99.90;;;;;;5072967;28;19964;-71
2021/11/04 04:50:04;;;;;;;;;;;3.30;99.90;;;;;;5074112;28;19931;-71
2021/11/04 04:52:32;;;;;;;;;;;3.20;99.90;;;;;;5073120;28;19968;-72
2021/11/04 04:54:58;;;;;;;;;;;3.20;99.90;;;;;;5074553;28;19925;-71
2021/11/04 04:57:25;;;;;;;;;;;3.20;99.90;;;;;;5073429;28;19951;-71
2021/11/04 04:59:55;;;;;;;;;;;3.20;99.90;;;;;;5071796;28;19924;-71
2021/11/04 05:02:22;;;;;;;;;;;3.20;99.90;;;;;;5072075;28;20325;-72
2021/11/04 05:04:49;;;;;;;;;;;3.10;99.90;;;;;;5074259;28;19931;-72
2021/11/04 05:07:16;;;;;;;;;;;3.10;99.90;;;;;;5072021;28;19932;-72
2021/11/04 05:09:43;;;;;;;;;;;3.10;99.90;;;;;;5074394;28;19925;-73
2021/11/04 05:12:10;;;;;;;;;;;3.10;99.90;;;;;;5073193;28;19976;-71
2021/11/04 05:14:37;;;;;;;;;;;3.10;99.90;;;;;;5074015;28;19924;-72
2021/11/04 05:17:05;;;;;;;;;;;3.00;99.90;;;;;;5071881;28;20217;-72
2021/11/04 05:19:32;;;;;;;;;;;3.10;99.90;;;;;;5073971;28;19924;-73
2021/11/04 05:21:58;;;;;;;;;;;3.10;99.90;;;;;;5074024;28;19924;-72
2021/11/04 05:24:25;;;;;;;;;;;3.10;99.90;;;;;;5072268;28;20380;-72
2021/11/04 05:26:51;;;;;;;;;;;3.10;99.90;;;;;;5073285;28;19925;-72
2021/11/04 05:29:18;;;;;;;;;;;3.10;99.90;;;;;;5071676;28;19925;-72
2021/11/04 05:31:45;;;;;;;;;;;3.10;99.90;;;;;;5073558;28;20040;-72
2021/11/04 05:34:13;;;;;;;;;;;3.10;99.90;;;;;;5071859;28;19931;-72
2021/11/04 05:36:40;;;;;;;;;;;3.10;99.90;;;;;;5073540;28;19931;-72
2021/11/04 05:39:06;;;;;;;;;;;3.10;99.90;;;;;;5070710;28;19928;-72
2021/11/04 05:41:33;;;;;;;;;;;3.10;99.90;;;;;;5073754;28;19924;-72
2021/11/04 05:44:00;;;;;;;;;;;3.00;99.90;;;;;;5071658;28;19939;-72
2021/11/04 05:46:27;;;;;;;;;;;3.00;99.90;;;;;;5073337;28;19924;-72
2021/11/04 05:48:54;;;;;;;;;;;3.00;99.90;;;;;;5071433;28;19932;-72
2021/11/04 05:51:22;;;;;;;;;;;3.00;99.90;;;;;;5073799;28;19986;-72
2021/11/04 05:53:48;;;;;;;;;;;3.00;99.90;;;;;;5071776;28;19924;-72
2021/11/04 05:56:15;;;;;;;;;;;3.00;99.90;;;;;;5073365;28;19931;-72
2021/11/04 05:58:41;;;;;;;;;;;3.00;99.90;;;;;;5070348;28;20023;-73
2021/11/04 06:01:08;;;;;;;;;;;3.00;99.90;;;;;;5073184;28;19924;-72
2021/11/04 06:03:35;;;;;;;;;;;3.00;99.90;;;;;;5071476;28;19925;-72
2021/11/04 06:06:01;;;;;;;;;;;3.00;99.90;;;;;;5072968;28;19925;-72
2021/11/04 06:08:29;;;;;;;;;;;3.00;99.90;;;;;;5071269;28;20302;-72
2021/11/04 06:10:56;;;;;;;;;;;2.90;99.90;;;;;;5072899;28;19924;-72
2021/11/04 06:13:23;;;;;;;;;;;3.00;99.90;;;;;;5069815;28;20346;-72
2021/11/04 06:15:49;;;;;;;;;;;3.00;99.90;;;;;;5072677;28;20381;-72
2021/11/04 06:18:16;;;;;;;;;;;3.00;99.90;;;;;;5070503;28;19924;-72
2021/11/04 06:20:43;;;;;;;;;;;3.00;99.90;;;;;;5072618;28;20023;-72
2021/11/04 06:23:10;;;;;;;;;;;3.00;99.90;;;;;;5071013;28;19953;-72
2021/11/04 06:25:38;;;;;;;;;;;2.90;99.90;;;;;;5072745;28;19924;-72
2021/11/04 06:28:05;;;;;;;;;;;2.90;99.90;;;;;;5071560;28;19925;-72
2021/11/04 06:30:31;;;;;;;;;;;2.90;99.90;;;;;;5072545;28;19986;-72
2021/11/04 06:32:58;;;;;;;;;;;2.90;99.90;;;;;;5069604;28;19944;-72
2021/11/04 06:35:24;;;;;;;;;;;2.90;99.90;;;;;;5072433;28;19924;-72
2021/11/04 06:37:51;;;;;;;;;;;2.80;99.90;;;;;;5070169;28;20019;-72
2021/11/04 06:40:24;;;;;;;;;;;2.80;99.90;;;;;;5052831;28;20008;-72
2021/11/04 06:42:52;;;;;;;;;;;2.80;99.90;;;;;;5067991;28;19929;-72
2021/11/04 06:45:18;;;;;;;;;;;2.80;99.90;;;;;;5072307;28;19931;-72
2021/11/04 06:47:47;;;;;;;;;;;2.70;99.90;;;;;;5069955;28;20015;-73
2021/11/04 06:50:14;;;;;;;;;;;2.70;99.90;;;;;;5070878;28;19931;-71
2021/11/04 06:52:46;;;;;;;;;;;2.70;99.90;;;;;;5069930;28;20386;-70
2021/11/04 06:55:13;;;;;;;;;;;2.70;99.90;;;;;;5072166;28;20383;-70
2021/11/04 06:57:41;;;;;;;;;;;2.70;99.90;;;;;;5070530;28;20363;-71
2021/11/04 07:00:10;;;;;;;;;;;2.70;99.90;;;;;;5072027;28;19931;-71
2021/11/04 07:02:39;;;;;;;;;;;2.80;99.90;;;;;;5069681;28;20298;-72
2021/11/04 07:05:07;;;;;;;;;;;2.80;99.90;;;;;;5072175;28;19944;-71
2021/11/04 07:07:43;;;;;;;;;;;2.80;99.90;;;;;;5069799;28;19925;-71
2021/11/04 09:34:34;;;;;;;;;;;7.10;99.90;;;;;;5134000;27;19916;-77
2021/11/04 09:37:01;;;;;;;;;;;7.40;99.90;;;;;;5133236;27;20133;-77
2021/11/04 09:39:28;;;;;;;;;;;7.70;99.90;;;;;;5132883;27;19927;-77
2021/11/04 09:41:56;;;;;;;;;;;7.90;99.90;;;;;;5132970;27;19924;-80
2021/11/04 09:44:22;;;;;;;;;;;8.10;99.90;;;;;;5136157;27;20022;-78
2021/11/04 09:46:49;;;;;;;;;;;8.30;99.90;;;;;;5136349;27;19923;-78
2021/11/04 09:49:16;;;;;;;;;;;8.30;99.90;;;;;;5135786;27;20014;-77
2021/11/04 09:51:44;;;;;;;;;;;8.30;99.90;;;;;;5136374;27;20438;-77
2021/11/04 09:54:10;;;;;;;;;;;8.30;99.90;;;;;;5131932;27;20390;-78
2021/11/04 09:56:37;;;;;;;;;;;8.50;99.90;;;;;;5130051;27;19930;-79
2021/11/04 09:59:04;;;;;;;;;;;8.70;99.90;;;;;;5130376;27;19930;-76
2021/11/04 10:01:32;;;;;;;;;;;8.70;99.90;;;;;;5132804;27;19930;-76
2021/11/04 10:04:00;;;;;;;;;;;8.70;99.90;;;;;;5132127;28;19930;-77
2021/11/04 10:06:28;;;;;;;;;;;8.60;99.90;;;;;;5132406;27;19963;-77
2021/11/04 10:08:58;;;;;;;;;;;8.50;99.90;;;;;;5132016;27;19959;-76
2021/11/04 10:11:28;;;;;;;;;;;8.50;99.90;;;;;;5132078;27;19930;-77
2021/11/04 10:14:00;;;;;;;;;;;8.50;99.90;;;;;;5132292;27;19924;-77
2021/11/04 10:16:27;;;;;;;;;;;8.60;99.90;;;;;;5132284;27;20392;-78
2021/11/04 10:18:54;;;;;;;;;;;8.60;99.90;;;;;;5129883;27;20333;-78
2021/11/04 10:21:24;;;;;;;;;;;8.70;99.90;;;;;;5109085;27;19934;-77
2021/11/04 10:23:50;;;;;;;;;;;8.80;99.90;;;;;;5107666;28;19924;-78
2021/11/04 10:26:19;;;;;;;;;;;8.90;99.90;;;;;;5107149;28;19987;-76
2021/11/04 10:28:47;;;;;;;;;;;8.90;99.90;;;;;;5091146;28;19924;-77
2021/11/04 10:31:14;;;;;;;;;;;8.80;99.90;;;;;;5096555;28;19925;-76
2021/11/04 10:33:42;;;;;;;;;;;8.80;99.90;;;;;;5097826;28;19924;-76
2021/11/04 10:36:09;;;;;;;;;;;8.70;99.90;;;;;;5089576;28;19924;-76
2021/11/04 10:38:38;;;;;;;;;;;8.70;99.90;;;;;;5095196;28;19924;-76
2021/11/04 10:41:05;;;;;;;;;;;8.70;99.90;;;;;;5093487;28;20303;-75
2021/11/04 10:43:34;;;;;;;;;;;8.80;99.90;;;;;;5076563;28;19938;-77
2021/11/04 10:46:05;;;;;;;;;;;8.80;99.90;;;;;;5081383;28;19925;-76
2021/11/04 10:48:32;;;;;;;;;;;8.80;99.90;;;;;;5079104;28;20392;-78
2021/11/04 10:50:59;;;;;;;;;;;8.80;99.90;;;;;;5083476;28;20027;-75
2021/11/04 10:53:26;;;;;;;;;;;8.80;99.90;;;;;;5079995;28;20003;-75
2021/11/04 10:55:55;;;;;;;;;;;8.80;99.90;;;;;;5084578;28;19993;-76
2021/11/04 10:58:29;;;;;;;;;;;8.90;99.90;;;;;;5077569;28;19924;-76
2021/11/04 11:00:57;;;;;;;;;;;8.90;99.90;;;;;;5079151;28;19935;-74
2021/11/04 11:03:24;;;;;;;;;;;9.00;99.90;;;;;;5080458;28;19924;-75
2021/11/04 11:05:55;;;;;;;;;;;9.00;99.90;;;;;;5084849;28;19924;-73
2021/11/04 11:08:22;;;;;;;;;;;9.00;99.90;;;;;;5073851;28;20289;-74
2021/11/04 11:10:49;;;;;;;;;;;9.20;99.90;;;;;;5087605;28;20007;-74
2021/11/04 11:13:16;;;;;;;;;;;9.20;99.90;;;;;;5084085;28;20287;-75
2021/11/04 11:15:48;;;;;;;;;;;9.30;99.90;;;;;;5075738;28;19931;-75
2021/11/04 11:18:19;;;;;;;;;;;9.40;99.90;;;;;;5075218;28;19931;-74
2021/11/04 11:20:46;;;;;;;;;;;9.40;99.90;;;;;;5078927;28;19955;-75
2021/11/04 11:23:14;;;;;;;;;;;9.50;99.90;;;;;;5075978;28;19925;-73
2021/11/04 11:25:41;;;;;;;;;;;9.60;99.90;;;;;;5078717;28;19932;-73
2021/11/04 11:28:09;;;;;;;;;;;9.60;99.90;;;;;;5079316;28;20328;-75
2021/11/04 11:30:36;;;;;;;;;;;9.70;99.90;;;;;;5073986;28;20354;-75
2021/11/04 11:33:20;;;;;;;;;;;9.70;99.90;;;;;;5073276;28;20446;-75
2021/11/04 11:36:06;;;;;;;;;;;9.70;99.90;;;;;;5082294;28;20336;-76
2021/11/04 11:38:32;;;;;;;;;;;9.90;99.90;;;;;;5075762;28;20288;-76
2021/11/04 11:41:01;;;;;;;;;;;10.00;99.90;;;;;;5071961;28;19963;-75
2021/11/04 11:43:48;;;;;;;;;;;10.20;99.90;;;;;;5073866;28;20376;-76
2021/11/04 11:46:15;;;;;;;;;;;10.40;99.90;;;;;;5075395;28;19975;-76
2021/11/04 11:48:43;;;;;;;;;;;10.60;99.90;;;;;;5072642;28;19932;-75
2021/11/04 11:51:10;;;;;;;;;;;10.70;99.90;;;;;;5077314;28;19924;-76
2021/11/04 11:53:39;;;;;;;;;;;10.70;99.90;;;;;;5075339;28;19942;-77
2021/11/04 11:56:07;;;;;;;;;;;10.80;99.90;;;;;;5075327;28;19943;-75
2021/11/04 11:58:34;;;;;;;;;;;10.90;99.90;;;;;;5077211;28;19924;-75
2021/11/04 12:01:07;;;;;;;;;;;10.90;99.90;;;;;;5073632;28;20022;-78
2021/11/04 12:03:49;;;;;;;;;;;10.90;99.90;;;;;;5075897;28;22168;-76
2021/11/04 12:06:49;;;;;;;;;;;10.90;99.90;;;;;;5073357;28;20035;-79
2021/11/04 12:09:32;;;;;;;;;;;11.00;99.90;;;;;;5070788;28;20435;-77
2021/11/04 12:11:59;;;;;;;;;;;11.00;99.90;;;;;;5073495;28;19928;-76
2021/11/04 12:14:29;;;;;;;;;;;11.10;99.90;;;;;;5073915;28;19928;-78
2021/11/04 12:17:12;;;;;;;;;;;11.10;99.90;;;;;;5079137;28;19986;-77
2021/11/04 12:19:42;;;;;;;;;;;11.20;99.90;;;;;;5078332;28;19928;-77
2021/11/04 12:22:10;;;;;;;;;;;11.30;99.90;;;;;;5080465;28;20399;-78
2021/11/04 12:24:44;;;;;;;;;;;11.30;99.90;;;;;;5074138;28;20040;-76
2021/11/04 12:27:11;;;;;;;;;;;11.30;99.90;;;;;;5076092;28;19930;-75
2021/11/04 12:29:37;;;;;;;;;;;11.30;99.90;;;;;;5073143;28;19931;-76
2021/11/04 12:32:08;;;;;;;;;;;11.40;99.90;;;;;;5087438;28;20007;-75
2021/11/04 12:34:35;;;;;;;;;;;11.30;99.90;;;;;;5079396;28;19931;-76
2021/11/04 12:37:07;;;;;;;;;;;11.30;99.90;;;;;;5078185;28;19930;-73
2021/11/04 12:39:33;;;;;;;;;;;11.40;99.90;;;;;;5072152;28;19932;-79
2021/11/04 12:42:01;;;;;;;;;;;11.30;99.90;;;;;;5081466;28;19946;-76
2021/11/04 12:44:28;;;;;;;;;;;11.20;99.90;;;;;;5071581;28;19931;-77
2021/11/04 12:46:55;;;;;;;;;;;11.20;99.90;;;;;;5074700;28;20249;-80
2021/11/04 12:49:24;;;;;;;;;;;11.20;99.90;;;;;;5075198;28;20372;-77
2021/11/04 12:51:53;;;;;;;;;;;11.20;99.90;;;;;;5070737;28;20340;-79
2021/11/04 12:54:22;;;;;;;;;;;11.20;99.90;;;;;;5071900;28;20491;-77
2021/11/04 12:56:53;;;;;;;;;;;11.10;99.90;;;;;;5066877;28;19928;-75
2021/11/04 12:59:33;;;;;;;;;;;11.00;99.90;;;;;;5070742;28;19925;-79
2021/11/04 13:02:01;;;;;;;;;;;11.10;99.90;;;;;;5073329;28;19986;-77
2021/11/04 13:04:32;;;;;;;;;;;11.20;99.90;;;;;;5080165;28;19932;-79
2021/11/04 13:06:59;;;;;;;;;;;11.20;99.90;;;;;;5075372;28;19956;-77
2021/11/04 13:09:28;;;;;;;;;;;11.10;99.90;;;;;;5078245;28;19955;-81
2021/11/04 13:12:08;;;;;;;;;;;11.00;99.90;;;;;;5075678;28;19946;-81
2021/11/04 13:14:48;;;;;;;;;;;10.80;99.90;;;;;;5077312;28;19971;-76
2021/11/04 13:17:14;;;;;;;;;;;10.70;99.90;;;;;;5075072;28;20372;-83
2021/11/04 13:19:54;;;;;;;;;;;10.60;99.90;;;;;;5075416;28;20455;-85
2021/11/04 13:22:21;;;;;;;;;;;10.60;99.90;;;;;;5080616;28;19924;-84
2021/11/04 13:24:51;;;;;;;;;;;10.60;99.90;;;;;;5074551;28;19924;-84
2021/11/04 13:27:18;;;;;;;;;;;10.60;99.90;;;;;;5075171;28;20487;-83
2021/11/04 13:29:48;;;;;;;;;;;10.60;99.90;;;;;;5073860;28;20019;-85
2021/11/04 13:32:15;;;;;;;;;;;10.60;99.90;;;;;;5076014;28;19928;-85
2021/11/04 13:34:42;;;;;;;;;;;10.60;99.90;;;;;;5079820;28;19924;-84
2021/11/04 13:37:13;;;;;;;;;;;10.60;99.90;;;;;;5067992;22;20023;-88
2021/11/04 13:39:40;;;;;;;;;;;10.60;99.90;;;;;;5057654;28;19924;-83
2021/11/04 13:42:08;;;;;;;;;;;10.60;99.90;;;;;;5056417;28;20004;-85
2021/11/04 13:44:35;;;;;;;;;;;10.50;99.90;;;;;;5057427;28;19925;-86
2021/11/04 13:47:03;;;;;;;;;;;10.50;99.90;;;;;;5054327;28;19936;-86
2021/11/04 13:49:30;;;;;;;;;;;10.40;99.90;;;;;;5059310;28;19924;-85
2021/11/04 13:51:58;;;;;;;;;;;10.40;99.90;;;;;;5063785;28;19924;-79
2021/11/04 13:54:26;;;;;;;;;;;10.40;99.90;;;;;;5053365;28;20023;-82
2021/11/04 13:57:03;;;;;;;;;;;10.40;99.90;;;;;;5060177;28;19924;-86
2021/11/04 13:59:33;;;;;;;;;;;10.50;99.90;;;;;;5057482;28;19978;-81
2021/11/04 14:02:00;;;;;;;;;;;10.30;99.90;;;;;;5055364;28;19933;-84
2021/11/04 14:04:27;;;;;;;;;;;10.20;99.90;;;;;;5062231;28;19928;-78
2021/11/04 14:06:54;;;;;;;;;;;10.10;99.90;;;;;;5058076;28;19929;-81
2021/11/04 14:09:25;;;;;;;;;;;10.00;99.90;;;;;;5062225;28;19929;-77
2021/11/04 14:12:00;;;;;;;;;;;10.00;99.90;;;;;;5052863;28;19928;-77
2021/11/04 14:14:26;;;;;;;;;;;9.90;99.90;;;;;;5059202;28;20375;-79
2021/11/04 14:17:03;;;;;;;;;;;9.90;99.90;;;;;;5053268;28;19925;-77
2021/11/04 14:19:29;;;;;;;;;;;9.90;99.90;;;;;;5061435;28;19932;-79
2021/11/04 14:21:56;;;;;;;;;;;9.90;99.90;;;;;;5064157;28;20019;-78
2021/11/04 14:24:23;;;;;;;;;;;10.10;99.90;;;;;;5061923;28;19925;-77
2021/11/04 14:26:50;;;;;;;;;;;10.20;99.90;;;;;;5061381;28;19925;-76
2021/11/04 14:29:16;;;;;;;;;;;10.30;99.90;;;;;;5063699;28;19932;-76
2021/11/04 14:31:46;;;;;;;;;;;10.40;99.90;;;;;;5059690;28;19925;-77
2021/11/04 14:34:14;;;;;;;;;;;10.50;99.90;;;;;;5058860;28;19924;-77
2021/11/04 14:36:41;;;;;;;;;;;10.60;99.90;;;;;;5061557;28;19925;-86
2021/11/04 14:39:07;;;;;;;;;;;10.60;99.90;;;;;;5065760;28;19931;-86
2021/11/04 14:41:35;;;;;;;;;;;10.60;99.90;;;;;;5062014;28;19999;-78
2021/11/04 14:44:01;;;;;;;;;;;10.60;99.90;;;;;;5061533;28;19932;-77
2021/11/04 14:46:30;;;;;;;;;;;10.50;99.90;;;;;;5059896;28;19928;-78
2021/11/04 14:48:57;;;;;;;;;;;10.50;99.90;;;;;;5062004;28;19956;-82
2021/11/04 14:51:25;;;;;;;;;;;10.40;99.90;;;;;;5069745;28;19937;-87
2021/11/04 14:53:52;;;;;;;;;;;10.30;99.90;;;;;;5070477;28;19925;-89
2021/11/04 14:56:18;;;;;;;;;;;10.20;99.90;;;;;;5063050;28;19963;-87
2021/11/04 14:58:45;;;;;;;;;;;10.00;99.90;;;;;;5058761;28;19925;-81
2021/11/04 15:01:12;;;;;;;;;;;10.00;99.90;;;;;;5067369;28;20126;-83
2021/11/04 15:03:39;;;;;;;;;;;9.80;99.90;;;;;;5061622;28;19939;-77
2021/11/04 15:06:06;;;;;;;;;;;9.80;99.90;;;;;;5054894;28;19928;-84
2021/11/04 15:08:34;;;;;;;;;;;9.70;99.90;;;;;;5062659;28;19956;-85
2021/11/04 15:11:03;;;;;;;;;;;9.70;99.90;;;;;;5064088;28;19932;-87
2021/11/04 15:13:30;;;;;;;;;;;9.60;99.90;;;;;;5061057;28;20458;-78
2021/11/04 15:15:59;;;;;;;;;;;9.60;99.90;;;;;;5057635;28;19933;-79
2021/11/04 15:18:25;;;;;;;;;;;9.60;99.90;;;;;;5054871;28;19935;-86
2021/11/04 15:20:52;;;;;;;;;;;9.50;99.90;;;;;;5063515;28;19929;-85
2021/11/04 15:23:22;;;;;;;;;;;9.40;99.90;;;;;;5060604;28;20015;-87
2021/11/04 15:25:56;;;;;;;;;;;9.40;99.90;;;;;;5062441;28;20413;-86
2021/11/04 15:28:22;;;;;;;;;;;9.30;99.90;;;;;;5061093;28;19947;-85
2021/11/04 15:30:49;;;;;;;;;;;9.30;99.90;;;;;;5061225;28;19930;-85
2021/11/04 15:33:15;;;;;;;;;;;9.30;99.90;;;;;;5062378;28;19929;-85
2021/11/04 15:35:42;;;;;;;;;;;9.30;99.90;;;;;;5053797;28;20099;-84
2021/11/04 15:38:09;;;;;;;;;;;9.20;99.90;;;;;;5056892;28;19925;-76
2021/11/04 15:40:35;;;;;;;;;;;9.20;99.90;;;;;;5055718;28;19924;-76
2021/11/04 15:43:04;;;;;;;;;;;9.10;99.90;;;;;;5055864;28;20440;-78
2021/11/04 15:45:30;;;;;;;;;;;9.00;99.90;;;;;;5061164;28;20383;-78
2021/11/04 15:47:57;;;;;;;;;;;9.00;99.90;;;;;;5058273;28;20478;-78
2021/11/04 15:50:24;;;;;;;;;;;9.00;99.90;;;;;;5054428;28;19929;-79
2021/11/04 15:52:50;;;;;;;;;;;9.00;99.90;;;;;;5060467;28;20023;-77
2021/11/04 15:55:20;;;;;;;;;;;8.90;99.90;;;;;;5058420;28;19924;-90
2021/11/04 15:57:47;;;;;;;;;;;8.90;99.90;;;;;;5057276;28;19925;-88
2021/11/04 16:00:15;;;;;;;;;;;8.80;99.90;;;;;;5063296;28;19932;-89
2021/11/04 16:02:42;;;;;;;;;;;8.80;99.90;;;;;;5046976;28;20249;-90
2021/11/04 16:05:08;;;;;;;;;;;8.80;99.90;;;;;;5053955;28;20262;-76
2021/11/04 16:07:35;;;;;;;;;;;8.70;99.90;;;;;;5062854;28;19944;-85
2021/11/04 16:10:02;;;;;;;;;;;8.60;99.90;;;;;;5066338;28;19963;-85
2021/11/04 16:12:29;;;;;;;;;;;8.50;99.90;;;;;;5069647;28;20055;-85
2021/11/04 16:14:56;;;;;;;;;;;8.50;99.90;;;;;;5064172;28;19929;-82
2021/11/04 16:17:24;;;;;;;;;;;8.50;99.90;;;;;;5077842;28;19968;-83
2021/11/04 16:19:50;;;;;;;;;;;8.50;99.90;;;;;;5072319;28;19992;-84
2021/11/04 16:22:17;;;;;;;;;;;8.40;99.90;;;;;;5061543;28;19931;-84
2021/11/04 16:24:44;;;;;;;;;;;8.40;99.90;;;;;;5079714;28;19988;-82
2021/11/04 16:27:10;;;;;;;;;;;8.40;99.90;;;;;;5068667;28;19968;-86
2021/11/04 16:29:39;;;;;;;;;;;8.40;99.90;;;;;;5060989;28;20388;-84
2021/11/04 16:32:07;;;;;;;;;;;8.40;99.90;;;;;;5070111;28;20054;-82
2021/11/04 16:34:35;;;;;;;;;;;8.30;99.90;;;;;;5071103;28;19932;-86
2021/11/04 16:37:22;;;;;;;;;;;8.30;99.90;;;;;;5067277;28;19924;-85
2021/11/04 16:39:49;;;;;;;;;;;8.20;99.90;;;;;;5079481;28;19924;-83
2021/11/04 16:42:18;;;;;;;;;;;8.30;99.90;;;;;;5077266;28;19940;-85
2021/11/04 16:44:45;;;;;;;;;;;8.20;99.90;;;;;;5060899;28;19935;-86
2021/11/04 16:47:11;;;;;;;;;;;8.10;99.90;;;;;;5065206;28;19924;-86
2021/11/04 16:49:39;;;;;;;;;;;8.10;99.90;;;;;;5085004;28;19988;-84
2021/11/04 16:52:06;;;;;;;;;;;8.10;99.90;;;;;;5070640;28;19924;-86
2021/11/04 16:54:33;;;;;;;;;;;8.10;99.90;;;;;;5059081;28;19976;-86
2021/11/04 16:57:00;;;;;;;;;;;8.10;99.90;;;;;;5070300;28;20473;-86